Time;durP1;ratioP1;P1;durP2;ratioP2;P2;SDS_P1;SDS_P2;PMS_P1;PMS_P2;Temp;Humidity;BMP_temperature;BMP_pressure;BME280_temperature;BME280_humidity;BME280_pressure;Samples;Min_cycle;Max_cycle;Signal;HPM_P1;HPM_P2
2022/06/15 00:08:50;;;;;;;3.00;2.70;;;;;;;12.15;62.22;99952.50;430862;1273;142550;-58
2022/06/15 00:19:12;;;;;;;2.10;1.90;;;;;;;12.07;62.66;99946.84;430206;1273;142483;-59
2022/06/15 00:29:37;;;;;;;3.70;2.60;;;;;;;11.97;62.96;99950.11;430657;1273;142693;-60
2022/06/15 00:39:59;;;;;;;4.10;2.00;;;;;;;11.84;63.56;99955.33;432665;1273;142877;-59
2022/06/15 00:50:25;;;;;;;3.50;2.30;;;;;;;11.72;63.80;99951.87;431277;1271;142013;-59
2022/06/15 01:00:51;;;;;;;4.60;2.20;;;;;;;11.63;64.49;99951.88;432622;1273;141691;-59
2022/06/15 01:11:27;;;;;;;4.90;2.10;;;;;;;11.42;64.75;99946.68;431473;1273;145670;-60
2022/06/15 01:21:58;;;;;;;4.50;2.50;;;;;;;11.01;65.24;99952.81;431347;1273;142153;-61
2022/06/15 01:32:24;;;;;;;3.80;2.70;;;;;;;10.52;66.06;99957.45;429632;1273;147604;-59
2022/06/15 01:42:51;;;;;;;3.10;2.20;;;;;;;10.06;67.05;99951.25;430252;1273;147116;-58
2022/06/15 01:53:18;;;;;;;2.90;2.00;;;;;;;9.70;67.68;99947.44;430221;1273;143000;-59
2022/06/15 02:03:48;;;;;;;2.80;2.20;;;;;;;9.39;68.44;99953.10;431379;1273;143718;-59
2022/06/15 02:14:14;;;;;;;6.10;2.30;;;;;;;9.11;68.73;99958.41;429811;1273;162762;-60
2022/06/15 02:24:38;;;;;;;3.90;2.70;;;;;;;8.95;69.52;99958.39;431469;1273;143155;-60
2022/06/15 02:35:00;;;;;;;5.70;2.60;;;;;;;8.82;70.07;99964.96;430940;1273;142541;-59
2022/06/15 02:45:28;;;;;;;7.00;3.50;;;;;;;8.82;70.22;99968.64;430302;1273;142726;-60
2022/06/15 02:55:51;;;;;;;7.20;2.80;;;;;;;9.22;70.14;99977.23;430406;1273;166709;-59
2022/06/15 03:06:16;;;;;;;9.60;2.90;;;;;;;9.66;69.64;99982.96;430062;1273;143383;-60
2022/06/15 03:16:38;;;;;;;6.40;3.50;;;;;;;11.82;68.94;99979.95;430958;1273;146735;-59
2022/06/15 03:27:00;;;;;;;5.80;3.10;;;;;;;13.56;65.86;99987.31;430513;1274;142662;-60
2022/06/15 03:37:21;;;;;;;7.20;3.10;;;;;;;15.50;61.38;99992.04;431307;1273;141669;-61
2022/06/15 03:47:43;;;;;;;4.10;2.70;;;;;;;14.54;60.41;99995.35;431966;1273;143290;-61
2022/06/15 03:58:05;;;;;;;11.00;3.10;;;;;;;14.74;60.45;99992.45;430450;1274;143131;-60
2022/06/15 04:08:35;;;;;;;4.10;2.80;;;;;;;17.08;58.12;99986.15;429509;1273;147285;-61
2022/06/15 04:19:02;;;;;;;8.20;2.90;;;;;;;16.80;55.84;99992.75;433475;1273;141780;-60
2022/06/15 04:29:24;;;;;;;7.00;3.50;;;;;;;16.68;55.56;100002.29;429627;1274;144962;-60
2022/06/15 04:39:46;;;;;;;7.60;3.70;;;;;;;16.75;54.91;100007.67;438600;1273;142956;-61
2022/06/15 04:50:10;;;;;;;6.40;4.00;;;;;;;19.24;54.05;100013.21;446216;1273;196954;-61
2022/06/15 05:00:35;;;;;;;19.10;5.70;;;;;;;24.88;46.54;99996.20;447093;1272;143513;-60
2022/06/15 05:10:58;;;;;;;6.60;2.70;;;;;;;28.38;41.97;99998.74;446487;1273;143657;-63
2022/06/15 05:21:19;;;;;;;7.80;2.90;;;;;;;34.22;34.91;99997.44;447188;1273;141964;-62
2022/06/15 05:31:41;;;;;;;8.50;2.80;;;;;;;38.05;29.59;100007.99;433438;1273;144342;-62
2022/06/15 05:42:04;;;;;;;5.90;2.80;;;;;;;40.51;25.38;100004.62;431539;1273;143074;-61
2022/06/15 05:52:25;;;;;;;15.20;2.80;;;;;;;42.13;22.90;99999.63;447109;1273;143071;-61
2022/06/15 06:02:46;;;;;;;;;;;;;;;43.73;20.70;99996.61;436913;1272;142250;-60
2022/06/15 06:13:08;;;;;;;5.40;1.50;;;;;;;45.43;18.47;99997.96;447431;1273;128369;-60
2022/06/15 06:23:29;;;;;;;3.10;1.80;;;;;;;46.31;17.16;99995.25;445786;1273;141763;-61
2022/06/15 06:33:51;;;;;;;1.80;1.00;;;;;;;43.79;17.17;99994.23;439230;1272;142294;-60
2022/06/15 06:44:13;;;;;;;5.30;1.50;;;;;;;40.42;17.53;99988.45;446481;1272;142080;-61
2022/06/15 06:54:35;;;;;;;7.40;2.10;;;;;;;34.01;20.91;99987.64;442394;1273;142296;-64
2022/06/15 07:04:56;;;;;;;7.70;1.30;;;;;;;35.23;20.83;99992.70;429642;1273;142190;-61
2022/06/15 07:15:18;;;;;;;2.40;0.90;;;;;;;30.93;22.73;99997.27;432674;1273;142151;-60
2022/06/15 07:25:40;;;;;;;7.30;1.10;;;;;;;26.84;26.79;100000.94;430542;1273;142234;-62
2022/06/15 07:36:02;;;;;;;4.00;0.90;;;;;;;24.25;29.61;100005.97;435843;1273;142997;-62
2022/06/15 07:46:24;;;;;;;3.70;1.20;;;;;;;25.46;30.59;100006.82;432170;1273;142301;-61
2022/06/15 07:56:51;;;;;;;6.00;1.60;;;;;;;27.58;28.47;100001.89;432074;1273;142969;-61
2022/06/15 08:07:14;;;;;;;4.10;1.70;;;;;;;26.26;29.40;100002.53;432216;1272;142676;-61
2022/06/15 08:17:40;;;;;;;2.40;1.10;;;;;;;24.81;31.11;99995.33;431783;1273;142301;-62
2022/06/15 08:28:10;;;;;;;2.20;0.90;;;;;;;23.98;32.20;100002.12;438209;1272;392018;-62
2022/06/15 08:38:32;;;;;;;2.20;1.10;;;;;;;23.33;33.38;100005.14;431206;1273;142867;-61
2022/06/15 08:49:07;;;;;;;2.40;1.20;;;;;;;23.14;34.09;100011.09;431325;1272;141310;-62
2022/06/15 08:59:39;;;;;;;2.50;1.00;;;;;;;23.67;33.74;100000.94;432716;1273;141653;-62
2022/06/15 09:10:14;;;;;;;3.50;1.00;;;;;;;22.94;34.36;100006.69;431876;1271;142012;-62
2022/06/15 09:20:43;;;;;;;2.50;1.30;;;;;;;23.38;34.54;100009.88;430404;1273;142104;-60
2022/06/15 09:31:09;;;;;;;2.70;1.20;;;;;;;23.28;34.64;100013.30;432371;1273;142214;-62
2022/06/15 09:41:44;;;;;;;6.80;1.60;;;;;;;23.63;34.58;100005.70;443325;1272;142392;-62
2022/06/15 09:52:15;;;;;;;6.00;2.00;;;;;;;23.65;34.67;100010.89;434423;1273;142484;-62
2022/06/15 10:02:40;;;;;;;3.20;0.70;;;;;;;23.02;35.10;100020.60;433159;1273;146380;-61
2022/06/15 10:13:23;;;;;;;1.30;1.20;;;;;;;22.87;35.60;100019.55;433877;1273;141350;-61
2022/06/15 10:24:20;;;;;;;2.20;0.80;;;;;;;23.69;35.01;100009.12;432546;1273;141978;-62
2022/06/15 10:34:54;;;;;;;12.30;2.20;;;;;;;23.58;34.72;100003.92;438596;1272;145399;-61
2022/06/15 10:45:23;;;;;;;1.40;1.00;;;;;;;23.02;35.22;99997.88;440398;1272;141650;-62
2022/06/15 11:06:39;;;;;;;2.40;1.00;;;;;;;22.73;36.21;99978.94;438626;1273;141708;-60
2022/06/15 11:28:12;;;;;;;3.00;1.00;;;;;;;23.84;35.26;99972.05;444102;1272;199946;-62
2022/06/15 11:38:42;;;;;;;1.70;0.90;;;;;;;24.23;34.59;99969.57;432208;1273;143331;-64
2022/06/15 11:49:29;;;;;;;3.00;0.80;;;;;;;24.54;34.05;99971.50;435837;1273;142205;-61
2022/06/15 12:00:02;;;;;;;3.70;0.90;;;;;;;24.09;34.24;99967.41;442949;1273;144057;-62
2022/06/15 12:10:38;;;;;;;4.10;0.90;;;;;;;23.43;34.78;99973.73;430203;1273;141885;-59
2022/06/15 12:21:04;;;;;;;2.40;1.20;;;;;;;22.99;35.70;99968.44;436102;1273;188801;-62
2022/06/15 12:31:36;;;;;;;2.60;1.10;;;;;;;23.59;35.97;99960.54;437402;1271;141044;-59
2022/06/15 12:42:11;;;;;;;1.10;0.70;;;;;;;23.85;34.95;99949.40;440397;1273;141527;-62
2022/06/15 12:52:38;;;;;;;3.80;0.40;;;;;;;23.93;34.62;99949.60;434128;1273;141023;-62
2022/06/15 13:03:14;;;;;;;6.70;2.40;;;;;;;24.16;33.97;99944.66;437313;1272;141291;-62
2022/06/15 13:13:39;;;;;;;2.70;0.60;;;;;;;23.74;34.34;99946.34;445856;1271;141913;-61
2022/06/15 13:24:04;;;;;;;4.70;1.30;;;;;;;23.46;34.80;99939.39;443057;1273;143114;-62
2022/06/15 13:34:47;;;;;;;5.00;1.00;;;;;;;23.27;35.43;99942.89;438648;1273;142231;-62
2022/06/15 13:45:14;;;;;;;10.40;1.60;;;;;;;23.40;35.75;99932.00;430318;1273;140625;-62
2022/06/15 13:56:00;;;;;;;3.90;1.20;;;;;;;23.70;35.28;99924.28;445205;1272;197646;-62
2022/06/15 14:06:32;;;;;;;2.40;1.30;;;;;;;23.37;35.09;99922.80;441167;1272;142189;-62
2022/06/15 14:17:26;;;;;;;1.90;1.10;;;;;;;22.80;35.53;99915.23;431372;1273;143382;-61
2022/06/15 14:27:53;;;;;;;3.40;1.30;;;;;;;22.03;36.05;99907.45;429907;1270;142264;-63
2022/06/15 14:38:22;;;;;;;2.50;0.90;;;;;;;22.02;36.69;99901.73;433257;1272;142960;-61
2022/06/15 14:48:48;;;;;;;2.90;0.80;;;;;;;21.92;37.22;99895.11;432784;1273;141075;-62
2022/06/15 14:59:12;;;;;;;9.20;1.70;;;;;;;21.73;37.65;99893.74;432058;1272;162840;-61
2022/06/15 15:09:44;;;;;;;4.10;1.10;;;;;;;21.93;38.22;99888.06;430607;1273;141456;-61
2022/06/15 15:20:28;;;;;;;3.40;1.00;;;;;;;21.94;37.75;99879.19;430722;1273;141739;-62
2022/06/15 15:41:43;;;;;;;1.00;0.70;;;;;;;22.60;37.38;99857.96;429398;1273;141854;-63
2022/06/15 15:52:07;;;;;;;3.00;0.60;;;;;;;22.65;36.96;99851.94;444398;1273;142487;-61
2022/06/15 16:02:34;;;;;;;4.50;1.00;;;;;;;22.70;37.29;99845.60;440915;1273;144782;-62
2022/06/15 16:12:56;;;;;;;2.00;0.80;;;;;;;22.82;36.73;99840.67;430985;1273;142110;-61
2022/06/15 16:23:22;;;;;;;3.20;1.00;;;;;;;22.82;36.98;99844.52;430804;1273;141156;-61
2022/06/15 16:33:44;;;;;;;0.90;0.60;;;;;;;22.74;36.60;99839.51;430528;1273;141199;-62
2022/06/15 16:44:05;;;;;;;1.60;0.80;;;;;;;22.58;37.08;99835.67;429652;1273;142568;-62
2022/06/15 16:54:28;;;;;;;5.40;0.90;;;;;;;22.18;37.43;99833.52;430538;1270;142498;-63
2022/06/15 17:04:50;;;;;;;3.00;0.60;;;;;;;21.77;37.82;99825.23;430088;1273;144197;-62
2022/06/15 17:15:13;;;;;;;1.10;0.50;;;;;;;21.29;38.25;99817.94;430458;1273;142060;-62
2022/06/15 17:25:35;;;;;;;3.30;1.30;;;;;;;20.86;38.93;99810.67;430580;1273;142412;-61
2022/06/15 17:35:57;;;;;;;2.40;1.10;;;;;;;20.47;39.88;99806.60;431643;1273;142702;-62
2022/06/15 17:46:20;;;;;;;5.10;1.10;;;;;;;20.04;40.60;99808.77;430525;1273;141595;-61
2022/06/15 17:56:43;;;;;;;3.60;0.60;;;;;;;20.06;41.68;99798.94;429383;1273;141941;-61
2022/06/15 18:07:06;;;;;;;12.90;4.00;;;;;;;20.29;42.01;99793.91;430470;1273;143401;-62
2022/06/15 18:17:27;;;;;;;5.90;2.10;;;;;;;19.44;42.79;99798.55;431491;1273;142390;-62
2022/06/15 18:27:49;;;;;;;7.40;2.10;;;;;;;18.67;43.85;99799.61;434500;1273;141905;-61
2022/06/15 18:38:11;;;;;;;8.00;1.80;;;;;;;18.05;45.25;99804.23;434708;1272;141308;-61
2022/06/15 18:48:33;;;;;;;9.50;8.30;;;;;;;17.43;47.11;99813.04;447419;1272;141312;-61
2022/06/15 18:58:56;;;;;;;6.60;4.10;;;;;;;16.85;48.04;99811.73;446747;1272;142106;-61
2022/06/15 19:09:17;;;;;;;7.90;2.20;;;;;;;16.42;49.52;99821.69;444699;1273;141842;-63
2022/06/15 19:19:39;;;;;;;9.10;4.10;;;;;;;15.92;51.60;99831.30;447458;1273;142231;-62
2022/06/15 19:30:00;;;;;;;3.90;2.10;;;;;;;15.45;53.61;99836.83;439043;1272;141921;-61
2022/06/15 19:40:26;;;;;;;8.10;2.50;;;;;;;15.07;55.03;99837.54;440993;1273;141892;-61
2022/06/15 19:50:48;;;;;;;11.20;3.90;;;;;;;14.76;55.72;99839.21;446636;1272;142531;-61
2022/06/15 20:01:11;;;;;;;10.50;4.00;;;;;;;14.45;56.92;99838.41;442733;1273;142165;-62
2022/06/15 20:11:33;;;;;;;13.90;4.60;;;;;;;14.17;57.79;99831.16;436664;1273;143937;-62
2022/06/15 20:21:55;;;;;;;7.40;4.20;;;;;;;13.89;58.26;99836.76;430980;1273;147531;-60
2022/06/15 20:32:22;;;;;;;11.60;5.30;;;;;;;13.61;59.57;99837.71;436537;1273;324319;-61
2022/06/15 20:42:45;;;;;;;10.10;5.30;;;;;;;13.33;60.51;99833.20;438399;1273;142884;-61
2022/06/15 20:53:22;;;;;;;8.00;4.60;;;;;;;13.02;61.29;99829.77;441656;1273;147649;-61
2022/06/15 21:03:43;;;;;;;6.80;4.90;;;;;;;12.77;62.24;99818.64;447144;1273;145150;-62
2022/06/15 21:24:45;;;;;;;11.80;4.80;;;;;;;12.62;62.83;99820.88;442859;1273;143232;-62
2022/06/15 21:35:08;;;;;;;7.40;4.80;;;;;;;12.46;63.18;99820.73;436553;1272;144704;-61
2022/06/15 21:45:37;;;;;;;6.80;4.50;;;;;;;12.29;63.85;99816.81;446774;1272;142857;-61
2022/06/15 21:55:58;;;;;;;7.90;5.70;;;;;;;12.20;64.11;99813.21;445959;1271;145638;-62
2022/06/15 22:06:20;;;;;;;11.70;4.40;;;;;;;12.25;64.01;99809.91;446887;1273;142892;-62
2022/06/15 22:16:41;;;;;;;7.40;5.00;;;;;;;12.07;64.53;99808.39;446871;1273;143353;-62
2022/06/15 22:27:04;;;;;;;11.00;4.80;;;;;;;11.81;64.85;99801.53;437336;1273;142378;-60
2022/06/15 22:37:26;;;;;;;8.70;5.10;;;;;;;11.50;65.46;99803.16;430555;1273;144031;-61
2022/06/15 22:47:48;;;;;;;8.40;5.60;;;;;;;11.21;66.53;99806.23;433023;1273;142892;-61
2022/06/15 22:58:10;;;;;;;11.10;6.40;;;;;;;11.03;67.07;99806.30;434796;1273;143609;-61
2022/06/15 23:08:32;;;;;;;15.90;6.10;;;;;;;10.91;67.70;99808.40;432245;1273;147549;-62
2022/06/15 23:18:53;;;;;;;8.70;5.90;;;;;;;10.77;68.16;99802.61;429989;1273;142651;-60
2022/06/15 23:29:15;;;;;;;8.70;5.80;;;;;;;10.71;68.12;99793.70;428956;1273;143979;-58
2022/06/15 23:39:37;;;;;;;7.80;5.70;;;;;;;10.58;68.38;99787.28;431424;1273;143648;-61
2022/06/15 23:49:59;;;;;;;9.40;5.30;;;;;;;10.45;69.02;99789.84;435626;1273;143862;-62
